sensor_id;sensor_type;location;lat;lon;timestamp;temperature;humidity
36660;DHT22;22654;51.054;3.654;2022-08-21T00:00:37;14.80;99.90
36660;DHT22;22654;51.054;3.654;2022-08-21T00:03:06;14.80;99.90
36660;DHT22;22654;51.054;3.654;2022-08-21T00:05:42;14.60;99.90
36660;DHT22;22654;51.054;3.654;2022-08-21T00:08:09;14.60;99.90
36660;DHT22;22654;51.054;3.654;2022-08-21T00:10:35;14.50;99.90
36660;DHT22;22654;51.054;3.654;2022-08-21T00:13:03;14.50;99.90
36660;DHT22;22654;51.054;3.654;2022-08-21T00:15:30;14.60;99.90
36660;DHT22;22654;51.054;3.654;2022-08-21T00:17:57;14.60;99.90
36660;DHT22;22654;51.054;3.654;2022-08-21T00:20:24;14.60;99.90
36660;DHT22;22654;51.054;3.654;2022-08-21T00:22:50;14.50;99.90
36660;DHT22;22654;51.054;3.654;2022-08-21T00:25:16;14.80;99.90
36660;DHT22;22654;51.054;3.654;2022-08-21T00:27:43;15.30;99.90
36660;DHT22;22654;51.054;3.654;2022-08-21T00:30:10;15.50;99.90
36660;DHT22;22654;51.054;3.654;2022-08-21T00:32:38;15.50;99.90
36660;DHT22;22654;51.054;3.654;2022-08-21T00:35:10;15.40;99.90
36660;DHT22;22654;51.054;3.654;2022-08-21T00:37:39;15.30;99.90
36660;DHT22;22654;51.054;3.654;2022-08-21T00:40:09;15.40;99.90
36660;DHT22;22654;51.054;3.654;2022-08-21T00:42:35;15.40;99.90
36660;DHT22;22654;51.054;3.654;2022-08-21T00:45:03;15.30;99.90
36660;DHT22;22654;51.054;3.654;2022-08-21T00:47:30;15.30;99.90
36660;DHT22;22654;51.054;3.654;2022-08-21T00:49:56;15.10;99.90
36660;DHT22;22654;51.054;3.654;2022-08-21T00:52:29;14.70;99.90
36660;DHT22;22654;51.054;3.654;2022-08-21T00:54:57;14.70;99.90
36660;DHT22;22654;51.054;3.654;2022-08-21T00:57:30;14.90;99.90
36660;DHT22;22654;51.054;3.654;2022-08-21T01:00:00;15.10;99.90
36660;DHT22;22654;51.054;3.654;2022-08-21T01:02:27;15.10;99.90
36660;DHT22;22654;51.054;3.654;2022-08-21T01:04:53;15.20;99.90
36660;DHT22;22654;51.054;3.654;2022-08-21T01:07:19;15.30;99.90
36660;DHT22;22654;51.054;3.654;2022-08-21T01:09:48;15.10;99.90
36660;DHT22;22654;51.054;3.654;2022-08-21T01:12:15;15.10;99.90
36660;DHT22;22654;51.054;3.654;2022-08-21T01:14:41;14.90;99.90
36660;DHT22;22654;51.054;3.654;2022-08-21T01:17:13;14.80;99.90
36660;DHT22;22654;51.054;3.654;2022-08-21T01:19:39;14.90;99.90
36660;DHT22;22654;51.054;3.654;2022-08-21T01:22:06;14.60;99.90
36660;DHT22;22654;51.054;3.654;2022-08-21T01:24:32;14.40;99.90
36660;DHT22;22654;51.054;3.654;2022-08-21T01:26:59;14.10;99.90
36660;DHT22;22654;51.054;3.654;2022-08-21T01:29:34;14.00;99.90
36660;DHT22;22654;51.054;3.654;2022-08-21T01:32:11;13.90;99.90
36660;DHT22;22654;51.054;3.654;2022-08-21T01:34:40;13.90;99.90
36660;DHT22;22654;51.054;3.654;2022-08-21T01:37:07;13.90;99.90
36660;DHT22;22654;51.054;3.654;2022-08-21T01:39:33;13.90;99.90
36660;DHT22;22654;51.054;3.654;2022-08-21T01:42:00;14.20;99.90
36660;DHT22;22654;51.054;3.654;2022-08-21T01:44:26;14.60;99.90
36660;DHT22;22654;51.054;3.654;2022-08-21T01:46:53;14.70;99.90
36660;DHT22;22654;51.054;3.654;2022-08-21T01:49:19;14.60;99.90
36660;DHT22;22654;51.054;3.654;2022-08-21T01:51:48;14.80;99.90
36660;DHT22;22654;51.054;3.654;2022-08-21T01:54:14;14.90;99.90
36660;DHT22;22654;51.054;3.654;2022-08-21T01:56:42;14.70;99.90
36660;DHT22;22654;51.054;3.654;2022-08-21T01:59:10;14.70;99.90
36660;DHT22;22654;51.054;3.654;2022-08-21T02:01:36;14.80;99.90
36660;DHT22;22654;51.054;3.654;2022-08-21T02:04:02;14.80;99.90
36660;DHT22;22654;51.054;3.654;2022-08-21T02:06:28;14.70;99.90
36660;DHT22;22654;51.054;3.654;2022-08-21T02:08:54;14.70;99.90
36660;DHT22;22654;51.054;3.654;2022-08-21T02:11:20;14.70;99.90
36660;DHT22;22654;51.054;3.654;2022-08-21T02:13:46;14.50;99.90
36660;DHT22;22654;51.054;3.654;2022-08-21T02:16:13;14.60;99.90
36660;DHT22;22654;51.054;3.654;2022-08-21T02:18:39;14.70;99.90
36660;DHT22;22654;51.054;3.654;2022-08-21T02:21:05;14.70;99.90
36660;DHT22;22654;51.054;3.654;2022-08-21T02:23:31;14.70;99.90
36660;DHT22;22654;51.054;3.654;2022-08-21T02:26:03;14.70;99.90
36660;DHT22;22654;51.054;3.654;2022-08-21T02:28:30;14.70;99.90
36660;DHT22;22654;51.054;3.654;2022-08-21T02:30:56;14.70;99.90
36660;DHT22;22654;51.054;3.654;2022-08-21T02:33:23;14.60;99.90
36660;DHT22;22654;51.054;3.654;2022-08-21T02:35:52;14.50;99.90
36660;DHT22;22654;51.054;3.654;2022-08-21T02:38:31;14.60;99.90
36660;DHT22;22654;51.054;3.654;2022-08-21T02:40:59;14.50;99.90
36660;DHT22;22654;51.054;3.654;2022-08-21T02:43:26;14.30;99.90
36660;DHT22;22654;51.054;3.654;2022-08-21T02:45:54;14.10;99.90
36660;DHT22;22654;51.054;3.654;2022-08-21T02:48:23;13.90;99.90
36660;DHT22;22654;51.054;3.654;2022-08-21T02:50:57;13.90;99.90
36660;DHT22;22654;51.054;3.654;2022-08-21T02:53:23;14.30;99.90
36660;DHT22;22654;51.054;3.654;2022-08-21T02:55:50;14.40;99.90
36660;DHT22;22654;51.054;3.654;2022-08-21T02:58:20;14.30;99.90
36660;DHT22;22654;51.054;3.654;2022-08-21T03:00:46;14.40;99.90
36660;DHT22;22654;51.054;3.654;2022-08-21T03:03:13;14.70;99.90
36660;DHT22;22654;51.054;3.654;2022-08-21T03:05:40;14.60;99.90
36660;DHT22;22654;51.054;3.654;2022-08-21T03:08:07;14.60;99.90
36660;DHT22;22654;51.054;3.654;2022-08-21T03:10:37;14.60;99.90
36660;DHT22;22654;51.054;3.654;2022-08-21T03:13:05;14.60;99.90
36660;DHT22;22654;51.054;3.654;2022-08-21T03:15:31;14.50;99.90
36660;DHT22;22654;51.054;3.654;2022-08-21T03:17:58;14.50;99.90
36660;DHT22;22654;51.054;3.654;2022-08-21T03:20:25;14.40;99.90
36660;DHT22;22654;51.054;3.654;2022-08-21T03:22:52;14.50;99.90
36660;DHT22;22654;51.054;3.654;2022-08-21T03:25:20;14.40;99.90
36660;DHT22;22654;51.054;3.654;2022-08-21T03:27:48;14.40;99.90
36660;DHT22;22654;51.054;3.654;2022-08-21T03:30:18;14.40;99.90
36660;DHT22;22654;51.054;3.654;2022-08-21T03:32:46;14.30;99.90
36660;DHT22;22654;51.054;3.654;2022-08-21T03:35:12;14.30;99.90
36660;DHT22;22654;51.054;3.654;2022-08-21T03:37:39;14.20;99.90
36660;DHT22;22654;51.054;3.654;2022-08-21T03:40:07;14.20;99.90
36660;DHT22;22654;51.054;3.654;2022-08-21T03:42:33;14.30;99.90
36660;DHT22;22654;51.054;3.654;2022-08-21T03:44:59;14.10;99.90
36660;DHT22;22654;51.054;3.654;2022-08-21T03:47:24;13.90;99.90
36660;DHT22;22654;51.054;3.654;2022-08-21T03:49:50;13.80;99.90
36660;DHT22;22654;51.054;3.654;2022-08-21T03:52:17;13.70;99.90
36660;DHT22;22654;51.054;3.654;2022-08-21T03:54:44;13.60;99.90
36660;DHT22;22654;51.054;3.654;2022-08-21T03:57:10;13.60;99.90
36660;DHT22;22654;51.054;3.654;2022-08-21T03:59:37;13.60;99.90
36660;DHT22;22654;51.054;3.654;2022-08-21T04:02:05;13.80;99.90
36660;DHT22;22654;51.054;3.654;2022-08-21T04:04:31;14.30;99.90
36660;DHT22;22654;51.054;3.654;2022-08-21T04:06:58;14.40;99.90
36660;DHT22;22654;51.054;3.654;2022-08-21T04:09:24;14.30;99.90
36660;DHT22;22654;51.054;3.654;2022-08-21T04:11:50;14.30;99.90
36660;DHT22;22654;51.054;3.654;2022-08-21T04:14:17;14.20;99.90
36660;DHT22;22654;51.054;3.654;2022-08-21T04:16:43;14.30;99.90
36660;DHT22;22654;51.054;3.654;2022-08-21T04:19:10;14.30;99.90
36660;DHT22;22654;51.054;3.654;2022-08-21T04:21:37;14.30;99.90
36660;DHT22;22654;51.054;3.654;2022-08-21T04:24:04;14.10;99.90
36660;DHT22;22654;51.054;3.654;2022-08-21T04:26:30;14.10;99.90
36660;DHT22;22654;51.054;3.654;2022-08-21T04:28:57;13.80;99.90
36660;DHT22;22654;51.054;3.654;2022-08-21T04:31:26;13.60;99.90
36660;DHT22;22654;51.054;3.654;2022-08-21T04:33:54;13.50;99.90
36660;DHT22;22654;51.054;3.654;2022-08-21T04:36:20;13.40;99.90
36660;DHT22;22654;51.054;3.654;2022-08-21T04:38:46;13.50;99.90
36660;DHT22;22654;51.054;3.654;2022-08-21T04:41:12;13.50;99.90
36660;DHT22;22654;51.054;3.654;2022-08-21T04:43:39;13.60;99.90
36660;DHT22;22654;51.054;3.654;2022-08-21T04:46:05;13.60;99.90
36660;DHT22;22654;51.054;3.654;2022-08-21T04:48:31;13.50;99.90
36660;DHT22;22654;51.054;3.654;2022-08-21T04:51:15;13.80;99.90
36660;DHT22;22654;51.054;3.654;2022-08-21T04:53:49;14.00;99.90
36660;DHT22;22654;51.054;3.654;2022-08-21T04:56:23;14.20;99.90
36660;DHT22;22654;51.054;3.654;2022-08-21T04:58:52;14.40;99.90
36660;DHT22;22654;51.054;3.654;2022-08-21T05:01:23;14.40;99.90
36660;DHT22;22654;51.054;3.654;2022-08-21T05:03:54;14.40;99.90
36660;DHT22;22654;51.054;3.654;2022-08-21T05:06:21;14.50;99.90
36660;DHT22;22654;51.054;3.654;2022-08-21T05:08:49;14.50;99.90
36660;DHT22;22654;51.054;3.654;2022-08-21T05:11:18;14.60;99.90
36660;DHT22;22654;51.054;3.654;2022-08-21T05:13:44;14.60;99.90
36660;DHT22;22654;51.054;3.654;2022-08-21T05:16:11;14.40;99.90
36660;DHT22;22654;51.054;3.654;2022-08-21T05:18:39;14.40;99.90
36660;DHT22;22654;51.054;3.654;2022-08-21T05:21:05;14.50;99.90
36660;DHT22;22654;51.054;3.654;2022-08-21T05:23:31;14.40;99.90
36660;DHT22;22654;51.054;3.654;2022-08-21T05:25:57;14.40;99.90
36660;DHT22;22654;51.054;3.654;2022-08-21T05:28:23;14.40;99.90
36660;DHT22;22654;51.054;3.654;2022-08-21T05:30:49;14.30;99.90
36660;DHT22;22654;51.054;3.654;2022-08-21T05:33:15;14.40;99.90
36660;DHT22;22654;51.054;3.654;2022-08-21T05:35:41;14.50;99.90
36660;DHT22;22654;51.054;3.654;2022-08-21T05:38:07;14.70;99.90
36660;DHT22;22654;51.054;3.654;2022-08-21T05:40:33;14.80;99.90
36660;DHT22;22654;51.054;3.654;2022-08-21T05:42:59;14.90;99.90
36660;DHT22;22654;51.054;3.654;2022-08-21T05:45:32;15.00;99.90
36660;DHT22;22654;51.054;3.654;2022-08-21T05:48:13;15.20;99.90
36660;DHT22;22654;51.054;3.654;2022-08-21T05:50:44;15.30;99.90
36660;DHT22;22654;51.054;3.654;2022-08-21T05:53:10;15.30;99.90
36660;DHT22;22654;51.054;3.654;2022-08-21T05:55:37;15.50;99.90
36660;DHT22;22654;51.054;3.654;2022-08-21T05:58:04;15.80;99.90
36660;DHT22;22654;51.054;3.654;2022-08-21T06:00:30;15.80;99.90
36660;DHT22;22654;51.054;3.654;2022-08-21T06:02:58;15.90;99.90
36660;DHT22;22654;51.054;3.654;2022-08-21T06:05:24;15.80;99.90
36660;DHT22;22654;51.054;3.654;2022-08-21T06:07:51;16.00;99.90
36660;DHT22;22654;51.054;3.654;2022-08-21T06:10:17;16.20;99.90
36660;DHT22;22654;51.054;3.654;2022-08-21T06:12:43;16.20;99.90
36660;DHT22;22654;51.054;3.654;2022-08-21T06:15:09;16.40;99.90
36660;DHT22;22654;51.054;3.654;2022-08-21T06:17:35;16.50;99.90
36660;DHT22;22654;51.054;3.654;2022-08-21T06:20:01;16.80;99.90
36660;DHT22;22654;51.054;3.654;2022-08-21T06:22:26;17.50;99.90
36660;DHT22;22654;51.054;3.654;2022-08-21T06:24:52;18.50;99.90
36660;DHT22;22654;51.054;3.654;2022-08-21T06:27:18;20.00;99.90
36660;DHT22;22654;51.054;3.654;2022-08-21T06:29:45;22.20;99.90
36660;DHT22;22654;51.054;3.654;2022-08-21T06:32:12;24.10;99.90
36660;DHT22;22654;51.054;3.654;2022-08-21T06:34:40;25.70;99.90
36660;DHT22;22654;51.054;3.654;2022-08-21T06:37:07;26.80;99.50
36660;DHT22;22654;51.054;3.654;2022-08-21T06:39:33;27.90;96.70
36660;DHT22;22654;51.054;3.654;2022-08-21T06:42:00;28.60;95.60
36660;DHT22;22654;51.054;3.654;2022-08-21T06:44:29;29.50;94.50
36660;DHT22;22654;51.054;3.654;2022-08-21T06:46:55;29.80;93.80
36660;DHT22;22654;51.054;3.654;2022-08-21T06:49:22;30.10;92.50
36660;DHT22;22654;51.054;3.654;2022-08-21T06:51:48;30.50;91.80
36660;DHT22;22654;51.054;3.654;2022-08-21T06:54:13;31.00;91.60
36660;DHT22;22654;51.054;3.654;2022-08-21T06:56:39;31.50;90.90
36660;DHT22;22654;51.054;3.654;2022-08-21T06:59:05;31.70;90.20
36660;DHT22;22654;51.054;3.654;2022-08-21T07:01:31;31.80;90.40
36660;DHT22;22654;51.054;3.654;2022-08-21T07:03:57;31.80;88.60
36660;DHT22;22654;51.054;3.654;2022-08-21T07:06:23;32.40;89.10
36660;DHT22;22654;51.054;3.654;2022-08-21T07:08:50;32.70;87.50
36660;DHT22;22654;51.054;3.654;2022-08-21T07:11:22;32.60;85.60
36660;DHT22;22654;51.054;3.654;2022-08-21T07:13:48;32.50;86.30
36660;DHT22;22654;51.054;3.654;2022-08-21T07:16:16;32.00;87.30
36660;DHT22;22654;51.054;3.654;2022-08-21T07:18:42;31.70;87.20
36660;DHT22;22654;51.054;3.654;2022-08-21T07:21:08;31.00;87.20
36660;DHT22;22654;51.054;3.654;2022-08-21T07:23:40;30.60;89.10
36660;DHT22;22654;51.054;3.654;2022-08-21T07:26:06;30.30;89.20
36660;DHT22;22654;51.054;3.654;2022-08-21T07:28:33;29.30;90.10
36660;DHT22;22654;51.054;3.654;2022-08-21T07:31:00;28.80;90.90
36660;DHT22;22654;51.054;3.654;2022-08-21T07:33:28;28.20;91.60
36660;DHT22;22654;51.054;3.654;2022-08-21T07:35:54;27.60;92.10
36660;DHT22;22654;51.054;3.654;2022-08-21T07:38:21;27.10;93.10
36660;DHT22;22654;51.054;3.654;2022-08-21T07:40:49;27.20;93.00
36660;DHT22;22654;51.054;3.654;2022-08-21T07:43:16;27.40;92.70
36660;DHT22;22654;51.054;3.654;2022-08-21T07:45:44;27.30;93.10
36660;DHT22;22654;51.054;3.654;2022-08-21T07:48:10;27.10;92.90
36660;DHT22;22654;51.054;3.654;2022-08-21T07:50:36;26.90;93.30
36660;DHT22;22654;51.054;3.654;2022-08-21T07:53:02;27.10;93.90
36660;DHT22;22654;51.054;3.654;2022-08-21T07:55:28;27.20;93.30
36660;DHT22;22654;51.054;3.654;2022-08-21T07:57:54;27.20;93.60
36660;DHT22;22654;51.054;3.654;2022-08-21T08:00:22;27.00;93.30
36660;DHT22;22654;51.054;3.654;2022-08-21T08:02:50;26.30;94.00
36660;DHT22;22654;51.054;3.654;2022-08-21T08:05:18;25.70;94.80
36660;DHT22;22654;51.054;3.654;2022-08-21T08:07:44;25.30;95.70
36660;DHT22;22654;51.054;3.654;2022-08-21T08:10:11;24.90;96.90
36660;DHT22;22654;51.054;3.654;2022-08-21T08:12:39;24.80;97.30
36660;DHT22;22654;51.054;3.654;2022-08-21T08:15:08;24.60;97.60
36660;DHT22;22654;51.054;3.654;2022-08-21T08:17:34;24.40;98.20
36660;DHT22;22654;51.054;3.654;2022-08-21T08:19:59;24.30;98.90
36660;DHT22;22654;51.054;3.654;2022-08-21T08:22:28;24.40;98.80
36660;DHT22;22654;51.054;3.654;2022-08-21T08:24:54;24.30;98.50
36660;DHT22;22654;51.054;3.654;2022-08-21T08:27:21;24.30;98.70
36660;DHT22;22654;51.054;3.654;2022-08-21T08:29:47;24.30;98.80
36660;DHT22;22654;51.054;3.654;2022-08-21T08:32:14;24.20;99.30
36660;DHT22;22654;51.054;3.654;2022-08-21T08:34:40;24.20;99.10
36660;DHT22;22654;51.054;3.654;2022-08-21T08:37:08;24.30;99.00
36660;DHT22;22654;51.054;3.654;2022-08-21T08:39:34;24.30;98.90
36660;DHT22;22654;51.054;3.654;2022-08-21T08:44:36;24.20;99.30
36660;DHT22;22654;51.054;3.654;2022-08-21T08:47:03;24.30;99.10
36660;DHT22;22654;51.054;3.654;2022-08-21T08:49:55;24.70;99.10
36660;DHT22;22654;51.054;3.654;2022-08-21T08:52:33;25.20;98.50
36660;DHT22;22654;51.054;3.654;2022-08-21T08:57:35;25.70;96.90
36660;DHT22;22654;51.054;3.654;2022-08-21T09:00:13;26.10;96.70
36660;DHT22;22654;51.054;3.654;2022-08-21T09:02:41;25.90;96.40
36660;DHT22;22654;51.054;3.654;2022-08-21T09:05:20;25.60;96.50
36660;DHT22;22654;51.054;3.654;2022-08-21T09:07:53;25.30;96.80
36660;DHT22;22654;51.054;3.654;2022-08-21T09:10:43;25.10;97.10
36660;DHT22;22654;51.054;3.654;2022-08-21T09:13:21;25.10;97.30
36660;DHT22;22654;51.054;3.654;2022-08-21T09:18:29;25.00;97.70
36660;DHT22;22654;51.054;3.654;2022-08-21T09:21:27;24.80;97.90
36660;DHT22;22654;51.054;3.654;2022-08-21T09:24:17;24.80;97.70
36660;DHT22;22654;51.054;3.654;2022-08-21T09:27:13;24.80;97.80
36660;DHT22;22654;51.054;3.654;2022-08-21T09:29:45;25.00;97.80
36660;DHT22;22654;51.054;3.654;2022-08-21T09:32:29;25.20;98.00
36660;DHT22;22654;51.054;3.654;2022-08-21T09:35:09;25.30;97.80
36660;DHT22;22654;51.054;3.654;2022-08-21T09:40:42;25.70;96.90
36660;DHT22;22654;51.054;3.654;2022-08-21T09:45:38;26.30;95.80
36660;DHT22;22654;51.054;3.654;2022-08-21T09:48:10;26.50;95.10
36660;DHT22;22654;51.054;3.654;2022-08-21T09:50:36;26.60;95.20
36660;DHT22;22654;51.054;3.654;2022-08-21T09:53:03;26.80;95.00
36660;DHT22;22654;51.054;3.654;2022-08-21T09:55:46;26.70;94.70
36660;DHT22;22654;51.054;3.654;2022-08-21T09:58:33;26.70;94.60
36660;DHT22;22654;51.054;3.654;2022-08-21T10:01:02;26.80;94.70
36660;DHT22;22654;51.054;3.654;2022-08-21T10:03:28;27.10;94.30
36660;DHT22;22654;51.054;3.654;2022-08-21T10:05:57;27.20;93.50
36660;DHT22;22654;51.054;3.654;2022-08-21T10:08:26;27.40;93.50
36660;DHT22;22654;51.054;3.654;2022-08-21T10:10:57;27.50;93.00
36660;DHT22;22654;51.054;3.654;2022-08-21T10:24:36;27.40;92.50
36660;DHT22;22654;51.054;3.654;2022-08-21T10:30:01;28.30;91.60
36660;DHT22;22654;51.054;3.654;2022-08-21T10:43:26;29.10;88.70
36660;DHT22;22654;51.054;3.654;2022-08-21T10:48:38;29.40;88.30
36660;DHT22;22654;51.054;3.654;2022-08-21T10:56:32;28.90;88.60
36660;DHT22;22654;51.054;3.654;2022-08-21T11:01:57;29.40;87.50
36660;DHT22;22654;51.054;3.654;2022-08-21T11:04:42;29.40;87.00
36660;DHT22;22654;51.054;3.654;2022-08-21T11:07:21;29.20;87.50
36660;DHT22;22654;51.054;3.654;2022-08-21T11:09:48;28.80;88.90
36660;DHT22;22654;51.054;3.654;2022-08-21T11:12:29;28.60;88.90
36660;DHT22;22654;51.054;3.654;2022-08-21T11:18:26;29.50;87.70
36660;DHT22;22654;51.054;3.654;2022-08-21T11:21:08;29.70;86.00
36660;DHT22;22654;51.054;3.654;2022-08-21T11:23:49;29.80;86.90
36660;DHT22;22654;51.054;3.654;2022-08-21T11:26:23;30.10;86.50
36660;DHT22;22654;51.054;3.654;2022-08-21T11:28:58;30.10;86.10
36660;DHT22;22654;51.054;3.654;2022-08-21T11:31:47;30.10;87.70
36660;DHT22;22654;51.054;3.654;2022-08-21T11:34:32;30.20;85.60
36660;DHT22;22654;51.054;3.654;2022-08-21T11:37:24;30.30;85.70
36660;DHT22;22654;51.054;3.654;2022-08-21T11:48:13;28.60;88.60
36660;DHT22;22654;51.054;3.654;2022-08-21T11:50:43;28.60;87.20
36660;DHT22;22654;51.054;3.654;2022-08-21T11:58:28;28.10;88.50
36660;DHT22;22654;51.054;3.654;2022-08-21T12:01:24;28.00;89.00
36660;DHT22;22654;51.054;3.654;2022-08-21T12:04:05;28.10;88.30
36660;DHT22;22654;51.054;3.654;2022-08-21T12:06:38;28.00;88.50
36660;DHT22;22654;51.054;3.654;2022-08-21T12:09:33;27.90;88.90
36660;DHT22;22654;51.054;3.654;2022-08-21T12:17:53;27.80;89.80
36660;DHT22;22654;51.054;3.654;2022-08-21T12:25:59;27.20;89.70
36660;DHT22;22654;51.054;3.654;2022-08-21T12:28:27;27.30;90.30
36660;DHT22;22654;51.054;3.654;2022-08-21T12:30:54;27.70;89.50
36660;DHT22;22654;51.054;3.654;2022-08-21T12:33:33;27.80;88.90
36660;DHT22;22654;51.054;3.654;2022-08-21T12:36:22;28.10;89.20
36660;DHT22;22654;51.054;3.654;2022-08-21T12:39:04;28.50;88.50
36660;DHT22;22654;51.054;3.654;2022-08-21T12:41:42;28.90;88.10
36660;DHT22;22654;51.054;3.654;2022-08-21T12:44:14;28.80;86.50
36660;DHT22;22654;51.054;3.654;2022-08-21T12:46:51;28.70;87.10
36660;DHT22;22654;51.054;3.654;2022-08-21T12:49:32;28.40;87.90
36660;DHT22;22654;51.054;3.654;2022-08-21T12:52:27;28.20;87.20
36660;DHT22;22654;51.054;3.654;2022-08-21T12:54:53;28.20;87.70
36660;DHT22;22654;51.054;3.654;2022-08-21T12:57:27;27.80;89.30
36660;DHT22;22654;51.054;3.654;2022-08-21T12:59:59;27.70;89.10
36660;DHT22;22654;51.054;3.654;2022-08-21T13:02:32;27.90;88.80
36660;DHT22;22654;51.054;3.654;2022-08-21T13:05:03;27.90;88.00
36660;DHT22;22654;51.054;3.654;2022-08-21T13:07:30;28.00;88.60
36660;DHT22;22654;51.054;3.654;2022-08-21T13:10:05;28.30;88.20
36660;DHT22;22654;51.054;3.654;2022-08-21T13:12:32;29.10;86.80
36660;DHT22;22654;51.054;3.654;2022-08-21T13:15:04;29.10;85.00
36660;DHT22;22654;51.054;3.654;2022-08-21T13:17:34;29.00;85.90
36660;DHT22;22654;51.054;3.654;2022-08-21T13:20:05;29.10;86.20
36660;DHT22;22654;51.054;3.654;2022-08-21T13:22:31;29.10;86.00
36660;DHT22;22654;51.054;3.654;2022-08-21T13:24:59;29.00;86.30
36660;DHT22;22654;51.054;3.654;2022-08-21T13:27:29;29.00;87.40
36660;DHT22;22654;51.054;3.654;2022-08-21T13:30:19;29.30;86.60
36660;DHT22;22654;51.054;3.654;2022-08-21T13:32:51;29.40;83.80
36660;DHT22;22654;51.054;3.654;2022-08-21T13:35:28;29.50;86.10
36660;DHT22;22654;51.054;3.654;2022-08-21T13:37:55;29.40;85.30
36660;DHT22;22654;51.054;3.654;2022-08-21T13:40:46;29.10;84.90
36660;DHT22;22654;51.054;3.654;2022-08-21T13:43:15;28.80;85.50
36660;DHT22;22654;51.054;3.654;2022-08-21T13:45:47;28.50;86.10
36660;DHT22;22654;51.054;3.654;2022-08-21T13:48:13;28.10;87.20
36660;DHT22;22654;51.054;3.654;2022-08-21T13:50:41;27.80;87.40
36660;DHT22;22654;51.054;3.654;2022-08-21T13:53:28;27.30;88.30
36660;DHT22;22654;51.054;3.654;2022-08-21T13:55:55;26.90;89.40
36660;DHT22;22654;51.054;3.654;2022-08-21T13:58:46;26.40;90.30
36660;DHT22;22654;51.054;3.654;2022-08-21T14:01:30;26.10;90.80
36660;DHT22;22654;51.054;3.654;2022-08-21T14:04:07;26.10;90.90
36660;DHT22;22654;51.054;3.654;2022-08-21T14:06:38;26.30;91.20
36660;DHT22;22654;51.054;3.654;2022-08-21T14:09:31;26.50;91.00
36660;DHT22;22654;51.054;3.654;2022-08-21T14:12:01;26.80;90.90
36660;DHT22;22654;51.054;3.654;2022-08-21T14:14:33;26.90;90.90
36660;DHT22;22654;51.054;3.654;2022-08-21T14:17:04;27.00;90.20
36660;DHT22;22654;51.054;3.654;2022-08-21T14:19:40;27.20;90.60
36660;DHT22;22654;51.054;3.654;2022-08-21T14:27:34;26.70;90.90
36660;DHT22;22654;51.054;3.654;2022-08-21T14:30:14;26.60;91.00
36660;DHT22;22654;51.054;3.654;2022-08-21T14:32:41;26.60;90.60
36660;DHT22;22654;51.054;3.654;2022-08-21T14:35:08;26.60;90.90
36660;DHT22;22654;51.054;3.654;2022-08-21T14:37:34;26.60;90.70
36660;DHT22;22654;51.054;3.654;2022-08-21T14:40:00;26.70;90.90
36660;DHT22;22654;51.054;3.654;2022-08-21T14:42:28;26.90;90.60
36660;DHT22;22654;51.054;3.654;2022-08-21T14:44:57;26.90;90.10
36660;DHT22;22654;51.054;3.654;2022-08-21T14:47:24;26.80;90.30
36660;DHT22;22654;51.054;3.654;2022-08-21T14:49:49;26.90;90.40
36660;DHT22;22654;51.054;3.654;2022-08-21T14:52:21;26.90;90.80
36660;DHT22;22654;51.054;3.654;2022-08-21T14:54:49;27.00;91.00
36660;DHT22;22654;51.054;3.654;2022-08-21T14:57:15;27.20;90.80
36660;DHT22;22654;51.054;3.654;2022-08-21T14:59:41;27.40;90.50
36660;DHT22;22654;51.054;3.654;2022-08-21T15:02:08;27.50;89.50
36660;DHT22;22654;51.054;3.654;2022-08-21T15:04:34;27.50;88.30
36660;DHT22;22654;51.054;3.654;2022-08-21T15:07:00;27.40;89.60
36660;DHT22;22654;51.054;3.654;2022-08-21T15:09:26;27.40;90.10
36660;DHT22;22654;51.054;3.654;2022-08-21T15:11:56;27.60;90.30
36660;DHT22;22654;51.054;3.654;2022-08-21T15:14:28;27.60;89.80
36660;DHT22;22654;51.054;3.654;2022-08-21T15:16:55;27.90;90.00
36660;DHT22;22654;51.054;3.654;2022-08-21T15:19:21;28.10;89.00
36660;DHT22;22654;51.054;3.654;2022-08-21T15:21:48;28.40;89.00
36660;DHT22;22654;51.054;3.654;2022-08-21T15:24:14;28.80;87.80
36660;DHT22;22654;51.054;3.654;2022-08-21T15:26:40;29.10;88.00
36660;DHT22;22654;51.054;3.654;2022-08-21T15:29:07;29.30;87.50
36660;DHT22;22654;51.054;3.654;2022-08-21T15:31:34;29.60;85.90
36660;DHT22;22654;51.054;3.654;2022-08-21T15:34:00;29.80;85.10
36660;DHT22;22654;51.054;3.654;2022-08-21T15:36:26;31.20;84.70
36660;DHT22;22654;51.054;3.654;2022-08-21T15:38:52;32.50;81.20
36660;DHT22;22654;51.054;3.654;2022-08-21T15:41:18;32.70;79.60
36660;DHT22;22654;51.054;3.654;2022-08-21T15:43:49;31.70;80.40
36660;DHT22;22654;51.054;3.654;2022-08-21T15:46:17;31.10;80.30
36660;DHT22;22654;51.054;3.654;2022-08-21T15:48:43;30.50;82.00
36660;DHT22;22654;51.054;3.654;2022-08-21T15:51:12;30.20;82.20
36660;DHT22;22654;51.054;3.654;2022-08-21T15:53:38;29.60;83.20
36660;DHT22;22654;51.054;3.654;2022-08-21T15:56:09;29.00;85.60
36660;DHT22;22654;51.054;3.654;2022-08-21T15:58:38;28.70;85.70
36660;DHT22;22654;51.054;3.654;2022-08-21T16:01:04;28.50;85.90
36660;DHT22;22654;51.054;3.654;2022-08-21T16:03:30;28.60;85.90
36660;DHT22;22654;51.054;3.654;2022-08-21T16:05:57;29.00;85.60
36660;DHT22;22654;51.054;3.654;2022-08-21T16:08:23;29.60;85.80
36660;DHT22;22654;51.054;3.654;2022-08-21T16:10:51;29.90;83.70
36660;DHT22;22654;51.054;3.654;2022-08-21T16:13:29;29.80;83.60
36660;DHT22;22654;51.054;3.654;2022-08-21T16:15:56;29.80;82.70
36660;DHT22;22654;51.054;3.654;2022-08-21T16:18:22;29.70;83.80
36660;DHT22;22654;51.054;3.654;2022-08-21T16:20:48;29.80;82.10
36660;DHT22;22654;51.054;3.654;2022-08-21T16:23:14;29.30;83.10
36660;DHT22;22654;51.054;3.654;2022-08-21T16:25:40;29.00;83.60
36660;DHT22;22654;51.054;3.654;2022-08-21T16:28:08;28.20;85.50
36660;DHT22;22654;51.054;3.654;2022-08-21T16:30:35;27.80;85.70
36660;DHT22;22654;51.054;3.654;2022-08-21T16:33:03;27.00;89.60
36660;DHT22;22654;51.054;3.654;2022-08-21T16:35:29;26.80;90.00
36660;DHT22;22654;51.054;3.654;2022-08-21T16:37:56;26.70;88.90
36660;DHT22;22654;51.054;3.654;2022-08-21T16:40:22;26.30;90.20
36660;DHT22;22654;51.054;3.654;2022-08-21T16:42:48;25.90;90.70
36660;DHT22;22654;51.054;3.654;2022-08-21T16:45:17;25.80;91.10
36660;DHT22;22654;51.054;3.654;2022-08-21T16:47:43;25.60;90.70
36660;DHT22;22654;51.054;3.654;2022-08-21T16:50:18;25.60;90.70
36660;DHT22;22654;51.054;3.654;2022-08-21T16:52:44;25.40;90.90
36660;DHT22;22654;51.054;3.654;2022-08-21T16:55:10;25.30;91.00
36660;DHT22;22654;51.054;3.654;2022-08-21T16:57:36;25.30;90.50
36660;DHT22;22654;51.054;3.654;2022-08-21T17:00:04;25.20;91.00
36660;DHT22;22654;51.054;3.654;2022-08-21T17:02:37;25.40;91.10
36660;DHT22;22654;51.054;3.654;2022-08-21T17:05:04;25.30;91.40
36660;DHT22;22654;51.054;3.654;2022-08-21T17:07:32;25.40;92.10